Columbiaville, Michigan
Current Conditions -  °F | °C
As of 3:54 AM on Thursday 23 Oct 2014 (Local Time) from KD95 Reporting Station
Haze Haze  
Wind Chill: -1°   Ceiling: Unl
Heat Index: -1°   Visibility: 2.5mi
Dew Point: -1°   Wind: 0mph
Humidity: 99%   Direction: NA
Pressure: 30.28"   Gusts: NA
Location:  43.16°N, 83.41°W
Report Text: KD95 230754Z AUTO 00000KT 2 1/2SM BR SCT001 M01/M01 A3028 RMK AO2 T10111012
Loading
Personal Weather Stations






























Interactive Weather Map
Tropical Storm Tracking
New forecast layout! Learn more

10-Day Weather Forecast

Advertisements
Track Severe Weather on mobile